»·PEaware :: N5002T KOXR-KBUR

N5002T :: KOXR-KBUR

FLIGHT INFORMATION

Flight Status: Arrived
Operator: Privately registered:
United States
More flights under this callsign
Pilot: Hunter M. (19355)
Aircraft: CESSNA 172 SKYHAWK
(C172)
More flights by this aircraft type
Origin: KOXR Oxnard
United States
Destination: KBUR Bob Hope-Burbank
United States
More flights between these airports :: More routes between these airports
Route: VTU054 TOAKS
File this flight plan on PilotEdge
Remarks: TEC Route
Altitude:
(Current/Filed)
5,000ft
Speed:
(Current/Filed)
118kts
Departed: 03-Feb-19 10:10 AM
Arrived: 03-Feb-19 10:48 AM
Distance/Time
Traveled:
42nm/0:38
Distance/Time
To Go:
Arrived

Flight Plot

Page will automatically refresh every two minutes.


Map Options




Map Legend


Flown Route
Filed Route
Departure Airport
Arrival Airport
Navaid (VOR, NDB)
Fix

Horizontal Profiles

Position Reports

Time Latitude Longitude Heading Altitude Ground
Speed
03-Feb-19 09:57 34.198097 -119.200892 269 46ft 0kts
03-Feb-19 09:58 34.198097 -119.200892 269 46ft 0kts
03-Feb-19 09:59 34.198097 -119.200892 269 46ft 0kts
03-Feb-19 10:00 34.198097 -119.200892 269 46ft 0kts
03-Feb-19 10:01 34.198097 -119.200892 269 46ft 0kts
03-Feb-19 10:02 34.198097 -119.200892 269 46ft 0kts
03-Feb-19 10:03 34.198097 -119.200892 269 46ft 0kts
03-Feb-19 10:04 34.198097 -119.200892 269 46ft 0kts
03-Feb-19 10:05 34.198515 -119.200099 64 46ft 14kts
03-Feb-19 10:06 34.199640 -119.198198 13 46ft 5kts
03-Feb-19 10:07 34.200022 -119.198136 1 46ft 0kts
03-Feb-19 10:08 34.200724 -119.198501 270 46ft 0kts
03-Feb-19 10:09 34.200852 -119.216418 266 337ft 90kts
03-Feb-19 10:10 34.200322 -119.248284 267 1089ft 98kts
03-Feb-19 10:11 34.199819 -119.281769 267 1788ft 100kts
03-Feb-19 10:12 34.199641 -119.314796 270 2478ft 98kts
03-Feb-19 10:13 34.197802 -119.345164 268 3194ft 88kts
03-Feb-19 10:14 34.196083 -119.374424 270 3877ft 85kts
03-Feb-19 10:15 34.194060 -119.402306 268 4554ft 81kts
03-Feb-19 10:16 34.200134 -119.422210 31 5029ft 99kts
03-Feb-19 10:17 34.201518 -119.383993 107 5014ft 124kts
03-Feb-19 10:18 34.189652 -119.344482 108 4999ft 124kts
03-Feb-19 10:19 34.184428 -119.303756 88 4999ft 123kts
03-Feb-19 10:20 34.187063 -119.263726 65 4993ft 111kts
03-Feb-19 10:21 34.192866 -119.229557 82 4996ft 101kts
03-Feb-19 10:22 34.194507 -119.194146 83 5002ft 108kts
03-Feb-19 10:23 34.196100 -119.157766 83 4999ft 108kts
03-Feb-19 10:24 34.197693 -119.121279 83 4999ft 109kts
03-Feb-19 10:25 34.199282 -119.084623 83 4999ft 109kts
03-Feb-19 10:26 34.200855 -119.048068 83 5001ft 109kts
03-Feb-19 10:27 34.202416 -119.011561 83 5001ft 109kts
03-Feb-19 10:28 34.203971 -118.974945 83 5000ft 109kts
03-Feb-19 10:29 34.205514 -118.938358 83 4999ft 109kts
03-Feb-19 10:30 34.207044 -118.901805 83 4999ft 109kts
03-Feb-19 10:31 34.208566 -118.865187 83 4999ft 109kts
03-Feb-19 10:32 34.210080 -118.828515 83 5000ft 109kts
03-Feb-19 10:33 34.211576 -118.791983 83 5005ft 109kts
03-Feb-19 10:34 34.213066 -118.755287 83 5004ft 109kts
03-Feb-19 10:35 34.207953 -118.719391 109 5003ft 111kts
03-Feb-19 10:36 34.200011 -118.683793 90 5003ft 110kts
03-Feb-19 10:37 34.200161 -118.646899 83 5000ft 109kts
03-Feb-19 10:38 34.201557 -118.610064 85 4996ft 109kts
03-Feb-19 10:39 34.200483 -118.572063 94 4574ft 114kts
03-Feb-19 10:40 34.198722 -118.533896 86 3923ft 107kts
03-Feb-19 10:41 34.200097 -118.498158 88 3160ft 96kts
03-Feb-19 10:42 34.198832 -118.468445 85 2335ft 79kts
03-Feb-19 10:43 34.198766 -118.443396 87 1893ft 74kts
03-Feb-19 10:44 34.198658 -118.418757 90 1649ft 70kts
03-Feb-19 10:45 34.198328 -118.394895 89 1277ft 65kts
03-Feb-19 10:46 34.197998 -118.373870 89 932ft 60kts
03-Feb-19 10:47 34.197802 -118.361026 87 781ft 12kts
03-Feb-19 10:48 34.197079 -118.360313 182 781ft 0kts
03-Feb-19 10:49 34.195751 -118.360311 181 781ft 0kts

Navigation Log

Ident Type
Flight plan parsing failed, navigation log unavailable